Time;durP1;ratioP1;P1;durP2;ratioP2;P2;SDS_P1;SDS_P2;PMS_P1;PMS_P2;Temp;Humidity;BMP_temperature;BMP_pressure;BME280_temperature;BME280_humidity;BME280_pressure;Samples;Min_cycle;Max_cycle;Signal;HPM_P1;HPM_P2
2023/07/03 00:00:40;;;;;;;9.93;2.47;;;;;;;17.26;93.87;98376.84;5151173;27;20107;-79
2023/07/03 00:03:24;;;;;;;10.23;3.00;;;;;;;17.28;93.87;98372.88;5135489;27;20064;-79
2023/07/03 00:06:08;;;;;;;5.93;2.75;;;;;;;17.39;94.11;98370.31;5151750;27;20052;-79
2023/07/03 00:08:52;;;;;;;8.27;2.50;;;;;;;17.48;93.83;98371.41;5150237;27;20041;-79
2023/07/03 00:11:36;;;;;;;5.05;2.42;;;;;;;17.66;93.67;98367.53;5137334;27;20073;-80
2023/07/03 00:14:20;;;;;;;9.02;2.90;;;;;;;18.19;90.36;98363.25;5135513;27;20099;-79
2023/07/03 00:17:07;;;;;;;4.53;2.38;;;;;;;17.90;91.52;98371.66;5152286;27;20066;-79
2023/07/03 00:19:51;;;;;;;9.75;2.67;;;;;;;18.30;90.05;98366.75;5136122;27;20045;-79
2023/07/03 00:22:35;;;;;;;6.18;2.45;;;;;;;18.61;88.69;98372.91;5152497;27;20149;-78
2023/07/03 00:25:19;;;;;;;8.02;2.38;;;;;;;18.87;86.82;98366.81;5150016;27;20160;-79
2023/07/03 00:28:03;;;;;;;5.88;2.13;;;;;;;18.89;86.66;98370.84;5152444;27;20120;-79
2023/07/03 00:30:47;;;;;;;4.80;2.05;;;;;;;18.80;86.25;98361.78;5150797;27;20042;-79
2023/07/03 00:33:31;;;;;;;5.78;2.10;;;;;;;18.74;85.79;98360.19;5149126;27;20041;-78
2023/07/03 00:36:15;;;;;;;7.65;2.58;;;;;;;18.40;85.87;98358.81;5134345;27;20096;-80
2023/07/03 00:38:59;;;;;;;5.72;2.22;;;;;;;18.46;85.59;98362.25;5150324;27;20050;-78
2023/07/03 00:41:44;;;;;;;9.90;2.20;;;;;;;18.13;85.84;98359.78;5151563;27;20041;-79
2023/07/03 00:44:28;;;;;;;5.05;2.08;;;;;;;18.12;85.22;98353.69;5135806;27;20083;-79
2023/07/03 00:47:11;;;;;;;9.68;2.20;;;;;;;17.61;86.18;98350.78;5151602;27;20453;-79
2023/07/03 00:49:56;;;;;;;4.28;2.33;;;;;;;17.19;87.27;98347.09;5151993;27;20129;-79
2023/07/03 00:52:41;;;;;;;6.93;2.58;;;;;;;17.80;86.39;98346.63;5151627;27;20498;-79
2023/07/03 00:55:26;;;;;;;5.60;2.15;;;;;;;17.50;87.32;98353.41;5150514;27;20033;-79
2023/07/03 00:58:10;;;;;;;7.10;2.70;;;;;;;18.08;86.40;98355.28;5150473;27;20513;-79
2023/07/03 01:01:08;;;;;;;5.53;2.30;;;;;;;18.36;85.54;98353.22;5148932;27;20053;-79
2023/07/03 01:04:01;;;;;;;5.03;2.30;;;;;;;18.60;85.58;98355.38;5135477;27;20080;-80
2023/07/03 01:06:57;;;;;;;6.73;2.30;;;;;;;18.59;86.07;98356.44;5150646;27;20157;-79
2023/07/03 01:09:48;;;;;;;4.82;2.50;;;;;;;18.52;86.05;98345.28;5135969;27;20304;-79
2023/07/03 01:12:37;;;;;;;8.15;2.50;;;;;;;18.22;86.23;98344.16;5150265;27;20090;-79
2023/07/03 01:15:25;;;;;;;5.90;2.35;;;;;;;18.45;85.91;98334.09;5149361;27;20095;-78
2023/07/03 01:18:11;;;;;;;8.65;2.17;;;;;;;18.40;85.58;98343.66;5151686;27;20065;-80
2023/07/03 01:21:05;;;;;;;3.75;2.13;;;;;;;18.51;85.41;98341.03;5151601;27;20109;-79
2023/07/03 01:23:57;;;;;;;6.93;2.63;;;;;;;18.44;84.80;98332.50;5135809;27;20383;-79
2023/07/03 01:26:44;;;;;;;5.20;2.15;;;;;;;18.40;85.43;98335.69;5136441;27;20066;-79
2023/07/03 01:29:29;;;;;;;8.88;2.63;;;;;;;18.30;85.10;98322.41;5150405;27;20095;-78
2023/07/03 01:32:14;;;;;;;6.50;2.20;;;;;;;18.50;84.78;98331.47;5149896;27;20037;-79
2023/07/03 01:35:00;;;;;;;8.32;2.35;;;;;;;18.42;84.83;98325.59;5134480;27;20145;-79
2023/07/03 01:37:47;;;;;;;10.10;2.60;;;;;;;18.42;84.68;98320.28;5150116;27;20506;-78
2023/07/03 01:40:32;;;;;;;4.55;2.15;;;;;;;18.40;84.70;98330.38;5148252;27;20087;-78
2023/07/03 01:43:17;;;;;;;4.22;2.40;;;;;;;18.51;84.39;98333.06;5151177;27;20081;-78
2023/07/03 01:46:01;;;;;;;7.63;2.58;;;;;;;18.45;84.95;98331.44;5150703;27;20469;-78
2023/07/03 01:48:46;;;;;;;7.75;2.30;;;;;;;18.43;84.68;98329.06;5134449;27;20065;-78
2023/07/03 01:51:44;;;;;;;6.40;2.28;;;;;;;18.68;84.45;98332.78;5131709;27;20037;-79
2023/07/03 01:54:59;;;;;;;7.47;2.50;;;;;;;18.58;84.43;98325.59;5135579;27;20041;-79
2023/07/03 01:58:03;;;;;;;11.27;3.20;;;;;;;17.88;86.63;98336.56;5129568;27;20069;-79
2023/07/03 02:00:56;;;;;;;7.00;2.80;;;;;;;17.65;88.26;98357.97;5134302;27;20115;-78
2023/07/03 02:04:01;;;;;;;4.25;2.53;;;;;;;17.54;89.85;98337.75;5150236;27;20042;-79
2023/07/03 02:06:47;;;;;;;4.25;2.08;;;;;;;17.51;90.74;98336.44;5135488;27;20083;-78
2023/07/03 02:09:32;;;;;;;6.03;2.60;;;;;;;18.13;89.62;98331.38;5150748;27;20065;-78
2023/07/03 02:12:16;;;;;;;7.05;2.90;;;;;;;17.49;90.77;98327.13;5150900;27;20564;-78
2023/07/03 02:15:04;;;;;;;8.23;3.20;;;;;;;17.40;91.21;98330.28;5149118;27;20046;-78
2023/07/03 02:17:53;;;;;;;6.60;3.20;;;;;;;17.39;91.04;98323.38;5154144;27;20049;-78
2023/07/03 02:20:38;;;;;;;7.60;3.08;;;;;;;17.28;91.20;98325.13;5139246;27;20510;-79
2023/07/03 02:23:22;;;;;;;7.20;2.40;;;;;;;17.45;90.69;98318.88;5153965;27;20034;-79
2023/07/03 02:26:07;;;;;;;10.40;2.92;;;;;;;17.43;90.41;98320.97;5153083;27;20127;-79
2023/07/03 02:28:51;;;;;;;7.93;3.10;;;;;;;17.40;90.29;98322.31;5151339;27;20046;-78
2023/07/03 02:31:35;;;;;;;7.65;2.95;;;;;;;17.40;90.34;98332.09;5138657;27;20103;-78
2023/07/03 02:34:20;;;;;;;12.45;3.45;;;;;;;17.53;92.01;98329.00;5154801;27;20042;-78
2023/07/03 02:37:09;;;;;;;6.88;3.80;;;;;;;17.34;93.03;98333.16;5138711;27;20042;-78
2023/07/03 02:39:53;;;;;;;9.82;4.50;;;;;;;17.26;94.12;98321.94;5153560;27;20111;-78
2023/07/03 02:42:37;;;;;;;10.77;4.50;;;;;;;17.48;94.04;98325.53;5137537;27;20062;-78
2023/07/03 02:45:21;;;;;;;7.55;5.32;;;;;;;17.08;95.05;98322.34;5153095;27;20050;-78
2023/07/03 02:48:07;;;;;;;10.32;6.38;;;;;;;17.24;95.53;98312.66;5153492;27;20168;-78
2023/07/03 02:50:52;;;;;;;9.60;6.20;;;;;;;17.12;95.58;98312.84;5153532;27;20457;-78
2023/07/03 02:53:36;;;;;;;10.07;6.70;;;;;;;17.18;95.56;98309.19;5153809;27;20089;-78
2023/07/03 02:56:21;;;;;;;13.13;6.72;;;;;;;16.98;96.53;98305.34;5153119;27;20030;-78
2023/07/03 02:59:05;;;;;;;10.93;6.13;;;;;;;17.51;94.38;98312.56;5137976;27;20107;-78
2023/07/03 03:01:50;;;;;;;12.27;5.88;;;;;;;17.24;94.80;98297.53;5152165;27;20137;-77
2023/07/03 03:04:33;;;;;;;9.93;5.03;;;;;;;16.98;96.06;98297.38;5137742;27;20045;-78
2023/07/03 03:07:18;;;;;;;8.23;4.75;;;;;;;16.90;95.71;98299.69;5136369;27;20037;-78
2023/07/03 03:10:03;;;;;;;10.00;4.60;;;;;;;17.05;95.28;98283.09;5152488;27;20221;-78
2023/07/03 03:12:47;;;;;;;7.93;3.53;;;;;;;17.37;93.00;98285.66;5153064;27;20396;-78
2023/07/03 03:15:37;;;;;;;6.13;3.50;;;;;;;17.26;95.36;98295.41;5153837;27;20078;-78
2023/07/03 03:18:21;;;;;;;9.73;3.40;;;;;;;17.25;93.70;98293.81;5137219;27;20042;-78
2023/07/03 03:21:05;;;;;;;6.57;3.50;;;;;;;17.13;93.58;98286.06;5151430;27;20038;-78
2023/07/03 03:23:50;;;;;;;8.05;3.35;;;;;;;17.02;94.66;98284.44;5153612;27;20041;-78
2023/07/03 03:26:34;;;;;;;11.30;3.42;;;;;;;17.19;94.65;98276.28;5136547;27;20114;-78
2023/07/03 03:29:18;;;;;;;7.18;3.38;;;;;;;17.19;94.50;98275.47;5151859;27;20054;-78
2023/07/03 03:32:03;;;;;;;8.98;3.10;;;;;;;17.17;94.09;98275.75;5137716;27;20179;-78
2023/07/03 03:34:47;;;;;;;13.23;4.15;;;;;;;16.97;94.64;98265.78;5152162;27;20095;-78
2023/07/03 03:37:31;;;;;;;7.60;4.07;;;;;;;16.98;94.65;98265.56;5153276;27;20041;-78
2023/07/03 03:40:15;;;;;;;7.82;3.83;;;;;;;16.99;94.46;98258.41;5152272;27;20034;-79
2023/07/03 03:42:59;;;;;;;10.63;4.50;;;;;;;16.91;95.17;98258.88;5137743;27;20040;-78
2023/07/03 03:45:43;;;;;;;9.30;4.80;;;;;;;16.87;95.18;98266.50;5152900;27;20131;-79
2023/07/03 03:48:29;;;;;;;8.00;4.38;;;;;;;16.72;95.17;98266.44;5151907;27;20098;-78
2023/07/03 03:51:13;;;;;;;9.45;4.13;;;;;;;16.61;95.24;98263.69;5151375;27;20547;-78
2023/07/03 03:53:57;;;;;;;9.43;4.70;;;;;;;16.81;95.47;98256.94;5151708;27;20087;-79
2023/07/03 03:56:41;;;;;;;7.30;4.75;;;;;;;17.06;93.86;98258.19;5138090;27;20037;-79
2023/07/03 03:59:25;;;;;;;9.02;5.18;;;;;;;17.30;92.79;98261.22;5151251;27;20479;-79
2023/07/03 04:02:09;;;;;;;16.85;5.20;;;;;;;17.47;92.45;98274.31;5137463;27;20513;-79
2023/07/03 04:04:53;;;;;;;12.82;5.00;;;;;;;17.45;92.47;98249.88;5152954;27;20049;-78
2023/07/03 04:07:37;;;;;;;12.25;4.53;;;;;;;17.52;91.81;98252.31;5137001;27;20049;-79
2023/07/03 04:10:22;;;;;;;8.55;4.10;;;;;;;17.61;91.76;98248.13;5134789;27;20068;-78
2023/07/03 04:13:05;;;;;;;7.25;3.90;;;;;;;17.64;92.34;98254.72;5137148;27;20092;-78
2023/07/03 04:15:52;;;;;;;7.43;3.20;;;;;;;17.67;92.54;98252.38;5150673;27;20765;-79
2023/07/03 04:18:37;;;;;;;9.52;3.50;;;;;;;17.76;91.98;98254.50;5150729;27;20498;-78
2023/07/03 04:21:21;;;;;;;6.40;2.95;;;;;;;17.80;91.96;98259.03;5152498;27;20069;-78
2023/07/03 04:24:05;;;;;;;13.10;3.60;;;;;;;17.84;92.14;98254.00;5149546;27;20049;-78
2023/07/03 04:26:54;;;;;;;9.43;3.63;;;;;;;17.83;92.37;98255.84;5152492;27;20069;-79
2023/07/03 04:29:38;;;;;;;13.20;3.67;;;;;;;17.62;92.43;98243.59;5152510;27;20075;-78
2023/07/03 04:32:22;;;;;;;8.35;3.63;;;;;;;17.52;92.33;98245.16;5150134;27;20609;-79
2023/07/03 04:35:06;;;;;;;9.70;3.72;;;;;;;17.42;92.66;98242.44;5151434;27;20079;-79
2023/07/03 04:37:50;;;;;;;7.72;3.97;;;;;;;17.45;92.85;98243.81;5151390;27;20122;-78
2023/07/03 04:40:37;;;;;;;15.43;4.57;;;;;;;17.48;92.48;98244.06;5135917;27;20050;-78
2023/07/03 04:43:21;;;;;;;9.82;3.92;;;;;;;17.76;92.25;98244.69;5135271;27;20095;-78
2023/07/03 04:46:05;;;;;;;8.48;3.65;;;;;;;17.77;92.24;98240.19;5152340;27;20045;-79
2023/07/03 04:48:50;;;;;;;12.73;3.67;;;;;;;17.80;91.77;98231.72;5150308;27;20491;-79
2023/07/03 04:51:34;;;;;;;13.00;4.45;;;;;;;17.93;91.48;98241.81;5135758;27;20045;-79
2023/07/03 04:54:19;;;;;;;12.05;4.03;;;;;;;17.74;90.96;98236.19;5149909;27;20037;-79
2023/07/03 04:57:03;;;;;;;8.35;3.50;;;;;;;17.73;91.10;98234.59;5135831;27;20065;-79
2023/07/03 04:59:48;;;;;;;10.88;3.83;;;;;;;17.56;91.63;98235.63;5133160;27;20146;-79
2023/07/03 05:02:32;;;;;;;7.55;2.80;;;;;;;17.59;91.46;98229.00;5135413;27;20064;-78
2023/07/03 05:05:18;;;;;;;8.07;3.47;;;;;;;17.65;91.79;98224.50;5150663;27;20041;-79
2023/07/03 05:08:02;;;;;;;6.35;2.90;;;;;;;17.79;92.37;98222.94;5150853;27;20163;-79
2023/07/03 05:10:46;;;;;;;11.00;3.70;;;;;;;17.95;92.02;98222.97;5149185;27;20044;-79
2023/07/03 05:13:29;;;;;;;7.28;2.97;;;;;;;18.03;91.78;98238.41;5151578;27;20040;-79
2023/07/03 05:16:14;;;;;;;8.88;3.67;;;;;;;18.31;91.50;98233.66;5148364;27;20121;-78
2023/07/03 05:19:01;;;;;;;8.27;3.13;;;;;;;18.63;90.86;98240.56;5150519;27;20046;-79
2023/07/03 05:21:45;;;;;;;9.27;3.47;;;;;;;18.09;90.87;98229.41;5150555;27;20441;-79
2023/07/03 05:24:29;;;;;;;14.13;3.33;;;;;;;17.97;89.48;98234.13;5150303;27;20111;-79
2023/07/03 05:27:13;;;;;;;9.77;3.17;;;;;;;18.31;89.60;98233.66;5150649;27;20189;-79
2023/07/03 05:29:57;;;;;;;13.50;3.83;;;;;;;18.54;88.14;98236.84;5151089;27;20045;-78
2023/07/03 05:32:42;;;;;;;10.27;4.25;;;;;;;18.21;86.49;98249.59;5150408;27;20103;-78
2023/07/03 05:35:26;;;;;;;12.63;5.07;;;;;;;17.85;88.16;98261.69;5149939;27;20488;-78
2023/07/03 05:38:10;;;;;;;7.68;3.30;;;;;;;16.88;96.34;98257.50;5151132;27;20463;-78
2023/07/03 05:40:55;;;;;;;4.63;2.60;;;;;;;17.01;92.00;98250.19;5148256;27;20095;-78
2023/07/03 05:43:39;;;;;;;7.07;3.00;;;;;;;16.39;92.66;98247.88;5149576;27;20186;-77
2023/07/03 05:46:23;;;;;;;4.10;2.10;;;;;;;16.53;93.63;98240.31;5148923;27;20050;-78
2023/07/03 05:49:07;;;;;;;4.60;2.50;;;;;;;16.97;92.02;98229.47;5150009;27;20050;-78
2023/07/03 05:51:51;;;;;;;6.30;3.33;;;;;;;17.04;91.93;98223.19;5134947;27;20502;-78
2023/07/03 05:54:35;;;;;;;6.95;4.10;;;;;;;17.15;91.86;98213.41;5135750;27;20060;-79
2023/07/03 05:57:20;;;;;;;9.90;4.57;;;;;;;17.08;91.27;98225.06;5146858;27;20042;-79
2023/07/03 06:00:12;;;;;;;12.77;5.28;;;;;;;17.14;92.33;98233.84;5149790;27;20058;-79
2023/07/03 06:02:59;;;;;;;10.65;5.38;;;;;;;17.22;92.52;98220.09;5132900;27;20094;-79
2023/07/03 06:05:43;;;;;;;11.30;4.85;;;;;;;17.27;92.90;98224.63;5148816;27;20049;-80
2023/07/03 06:08:27;;;;;;;8.40;4.53;;;;;;;17.40;92.53;98223.34;5150480;27;20045;-79
2023/07/03 06:11:11;;;;;;;12.45;4.03;;;;;;;16.87;93.61;98234.72;5150284;27;20079;-80
2023/07/03 06:13:55;;;;;;;9.68;4.57;;;;;;;17.21;94.55;98229.09;5147401;27;20034;-79
2023/07/03 06:16:39;;;;;;;6.78;3.85;;;;;;;17.41;94.83;98230.25;5149615;27;20033;-79
2023/07/03 06:19:24;;;;;;;10.48;4.30;;;;;;;17.47;94.57;98231.06;5131770;27;20400;-80
2023/07/03 06:22:09;;;;;;;7.13;4.35;;;;;;;17.35;93.98;98228.63;5150617;27;20090;-81
2023/07/03 06:24:53;;;;;;;15.30;4.32;;;;;;;18.03;91.64;98217.16;5149585;27;20042;-79
2023/07/03 06:27:37;;;;;;;10.35;3.90;;;;;;;18.23;90.28;98216.41;5131370;27;20556;-80
2023/07/03 06:30:21;;;;;;;8.88;3.78;;;;;;;18.44;90.94;98215.59;5147505;27;20472;-79
2023/07/03 06:33:05;;;;;;;10.68;3.58;;;;;;;18.13;90.57;98222.50;5150276;27;20457;-79
2023/07/03 06:35:50;;;;;;;10.38;4.20;;;;;;;18.45;90.64;98233.94;5150259;27;20225;-80
2023/07/03 06:38:34;;;;;;;12.05;3.53;;;;;;;18.37;90.90;98232.59;5147240;27;20157;-81
2023/07/03 06:41:23;;;;;;;9.50;3.42;;;;;;;18.82;91.24;98240.81;5134487;27;20069;-82
2023/07/03 06:44:13;;;;;;;10.18;3.35;;;;;;;18.97;88.98;98239.97;5149941;27;20050;-83
2023/07/03 06:46:57;;;;;;;11.63;4.03;;;;;;;19.68;87.91;98233.91;5133848;27;20037;-82
2023/07/03 06:49:41;;;;;;;9.13;3.20;;;;;;;19.53;86.59;98251.53;5149835;27;20400;-83
2023/07/03 06:52:25;;;;;;;12.43;4.07;;;;;;;18.83;84.99;98244.25;5134187;27;20037;-80
2023/07/03 06:55:09;;;;;;;14.02;3.67;;;;;;;18.68;85.29;98253.88;5145540;27;20037;-78
2023/07/03 06:57:53;;;;;;;12.73;3.55;;;;;;;19.00;83.87;98251.16;5128212;27;20094;-80
2023/07/03 07:00:37;;;;;;;12.00;3.38;;;;;;;18.95;84.07;98242.13;5122458;27;20129;-79
2023/07/03 07:03:21;;;;;;;19.92;3.63;;;;;;;19.29;83.88;98242.59;5132918;27;20074;-78
2023/07/03 07:06:10;;;;;;;8.77;3.63;;;;;;;19.95;82.73;98235.38;5136122;27;20138;-78
2023/07/03 07:09:00;;;;;;;15.15;3.75;;;;;;;19.99;82.16;98236.41;5147178;27;20041;-79
2023/07/03 07:11:46;;;;;;;9.25;2.97;;;;;;;20.10;80.60;98227.28;5150748;27;20041;-80
2023/07/03 07:14:31;;;;;;;11.20;3.75;;;;;;;19.44;78.40;98221.22;5150029;27;20130;-79
2023/07/03 07:17:14;;;;;;;10.15;2.90;;;;;;;19.22;76.60;98221.59;5135120;27;20167;-78
2023/07/03 07:19:59;;;;;;;6.63;2.97;;;;;;;19.68;76.77;98215.28;5133430;27;20057;-78
2023/07/03 07:22:43;;;;;;;8.07;2.78;;;;;;;19.76;76.73;98220.00;5135543;27;20037;-78
2023/07/03 07:25:27;;;;;;;11.40;2.80;;;;;;;19.79;77.40;98226.66;5151817;27;20098;-78
2023/07/03 07:28:12;;;;;;;13.88;3.15;;;;;;;19.79;76.59;98214.13;5134321;27;20041;-77
2023/07/03 07:30:56;;;;;;;15.88;3.40;;;;;;;19.58;75.14;98215.31;5135501;27;20046;-78
2023/07/03 07:33:40;;;;;;;10.55;2.90;;;;;;;19.50;73.65;98222.81;5132833;27;20041;-78
2023/07/03 07:36:26;;;;;;;15.77;3.28;;;;;;;19.32;74.06;98228.75;5132387;27;20050;-78
2023/07/03 07:39:09;;;;;;;11.00;2.97;;;;;;;19.76;73.80;98228.00;5149721;27;20042;-77
2023/07/03 07:41:55;;;;;;;7.10;2.90;;;;;;;19.97;73.84;98227.91;5150112;27;20040;-78
2023/07/03 07:44:39;;;;;;;7.63;3.40;;;;;;;20.31;73.42;98223.66;5133122;27;20041;-78
2023/07/03 07:47:23;;;;;;;9.15;2.90;;;;;;;19.80;72.82;98226.38;5151380;27;20109;-78
2023/07/03 07:50:08;;;;;;;8.55;2.78;;;;;;;19.93;71.70;98224.97;5150432;27;20037;-78
2023/07/03 07:52:52;;;;;;;11.63;3.55;;;;;;;20.24;72.45;98216.78;5136611;27;20045;-78
2023/07/03 07:55:36;;;;;;;9.15;2.83;;;;;;;20.61;72.35;98214.59;5151771;27;20099;-79
2023/07/03 07:58:20;;;;;;;12.07;3.05;;;;;;;19.97;71.82;98211.91;5151306;27;20022;-78
2023/07/03 08:01:05;;;;;;;10.88;3.20;;;;;;;20.46;71.13;98217.44;5136037;27;20054;-78
2023/07/03 08:03:49;;;;;;;15.70;2.95;;;;;;;19.88;70.38;98208.22;5149255;27;20079;-78
2023/07/03 08:06:33;;;;;;;10.45;3.03;;;;;;;20.56;70.25;98198.66;5150300;27;20046;-79
2023/07/03 08:09:17;;;;;;;9.43;2.33;;;;;;;20.64;69.75;98210.59;5148637;27;20383;-78
2023/07/03 08:12:05;;;;;;;9.90;2.92;;;;;;;20.44;68.06;98198.22;5150353;27;20068;-78
2023/07/03 08:14:49;;;;;;;7.15;2.88;;;;;;;20.04;69.23;98206.28;5130462;27;20049;-78
2023/07/03 08:17:33;;;;;;;14.57;3.25;;;;;;;19.70;67.96;98195.28;5149359;27;20090;-79
2023/07/03 08:20:18;;;;;;;9.10;2.72;;;;;;;19.62;69.78;98203.03;5135373;27;20061;-79
2023/07/03 08:23:01;;;;;;;;;;;;;;;20.89;68.76;98206.91;5137697;27;20062;-79
2023/07/03 08:25:54;;;;;;;11.50;2.90;;;;;;;20.65;67.28;98189.00;5151635;27;19922;-79
2023/07/03 08:28:38;;;;;;;10.60;2.80;;;;;;;20.89;67.51;98188.22;5137100;27;20042;-80
2023/07/03 08:31:22;;;;;;;10.30;2.97;;;;;;;20.77;66.94;98185.94;5135346;27;20518;-79
2023/07/03 08:34:07;;;;;;;10.75;2.53;;;;;;;21.44;65.53;98196.91;5152635;27;20581;-79
2023/07/03 08:36:52;;;;;;;7.28;2.70;;;;;;;21.01;63.66;98184.34;5135370;27;20087;-79
2023/07/03 08:39:39;;;;;;;7.45;2.70;;;;;;;20.97;65.15;98184.16;5149949;27;20376;-80
2023/07/03 08:42:32;;;;;;;10.25;2.88;;;;;;;21.81;64.20;98193.53;5150632;27;20126;-80
2023/07/03 08:45:17;;;;;;;15.35;3.25;;;;;;;21.28;62.64;98193.66;5150792;27;20042;-79
2023/07/03 08:48:06;;;;;;;10.45;2.88;;;;;;;22.16;62.54;98184.44;5151507;27;20049;-79
2023/07/03 08:50:54;;;;;;;9.05;2.60;;;;;;;21.64;61.11;98187.84;5135343;27;20221;-80
2023/07/03 08:53:41;;;;;;;18.85;2.70;;;;;;;22.27;61.08;98183.19;5136100;27;20390;-79
2023/07/03 08:56:30;;;;;;;10.88;3.17;;;;;;;22.47;60.60;98173.25;5136277;27;20034;-80
2023/07/03 08:59:15;;;;;;;10.38;2.90;;;;;;;21.95;59.48;98171.41;5149300;27;20452;-79
2023/07/03 09:02:26;;;;;;;13.48;2.90;;;;;;;21.79;60.40;98184.19;5150848;27;20049;-80
2023/07/03 09:05:43;;;;;;;7.57;2.65;;;;;;;22.22;60.63;98194.75;5151844;27;20444;-80
2023/07/03 09:08:44;;;;;;;12.63;2.88;;;;;;;21.94;61.00;98177.81;5150822;27;20083;-80
2023/07/03 09:11:33;;;;;;;11.10;3.10;;;;;;;22.51;60.05;98175.06;5135758;27;20200;-80
2023/07/03 09:14:27;;;;;;;13.40;2.95;;;;;;;23.00;59.79;98174.69;5150243;27;20448;-79
2023/07/03 09:17:12;;;;;;;9.25;2.72;;;;;;;22.95;59.19;98180.91;5151502;27;20391;-80
2023/07/03 09:19:57;;;;;;;7.65;2.63;;;;;;;23.02;59.98;98177.06;5151314;27;20407;-79
2023/07/03 09:22:51;;;;;;;10.77;3.63;;;;;;;22.33;61.09;98183.91;5151111;27;20091;-79
2023/07/03 09:25:38;;;;;;;;;;;;;;;22.48;61.86;98177.53;5134670;27;20049;-80
2023/07/03 09:28:23;;;;;;;11.20;2.95;;;;;;;22.17;62.22;98180.66;5151691;27;19920;-79
2023/07/03 09:31:07;;;;;;;8.65;2.45;;;;;;;22.75;62.63;98173.28;5147467;27;20160;-78
2023/07/03 09:33:51;;;;;;;10.57;3.17;;;;;;;23.15;62.04;98170.13;5150684;27;20412;-79
2023/07/03 09:36:40;;;;;;;7.53;2.70;;;;;;;22.77;62.02;98161.19;5150503;27;20030;-78
2023/07/03 09:39:23;;;;;;;8.45;2.08;;;;;;;23.41;61.94;98162.38;5147651;27;20033;-78
2023/07/03 09:42:08;;;;;;;7.43;2.25;;;;;;;23.44;61.61;98167.13;5150911;27;20473;-78
2023/07/03 09:44:52;;;;;;;9.00;2.58;;;;;;;22.74;63.33;98161.81;5150731;27;20499;-78
2023/07/03 09:47:36;;;;;;;5.55;2.38;;;;;;;23.20;63.46;98151.25;5149829;27;20046;-78
2023/07/03 09:50:30;;;;;;;9.93;2.80;;;;;;;23.51;62.80;98153.31;5146797;27;20058;-78
2023/07/03 09:53:20;;;;;;;7.22;2.92;;;;;;;23.46;61.93;98134.66;5145769;27;20045;-80
2023/07/03 09:56:13;;;;;;;7.85;2.72;;;;;;;23.78;61.98;98128.31;5149964;27;20129;-82
2023/07/03 09:59:03;;;;;;;10.80;2.70;;;;;;;23.70;62.32;98137.06;5147216;27;20046;-80
2023/07/03 10:01:48;;;;;;;8.40;3.38;;;;;;;23.84;61.19;98136.22;5151635;27;20454;-85
2023/07/03 10:04:32;;;;;;;19.23;2.90;;;;;;;23.19;63.48;98126.41;5151237;27;20054;-84
2023/07/03 10:07:17;;;;;;;14.35;4.07;;;;;;;23.55;64.56;98132.88;5134544;27;20042;-84
2023/07/03 10:10:01;;;;;;;11.77;3.05;;;;;;;23.28;63.54;98126.47;5151335;27;20416;-85
2023/07/03 10:12:54;;;;;;;10.27;2.60;;;;;;;23.20;63.72;98135.19;5151722;27;20034;-84
2023/07/03 10:15:41;;;;;;;11.98;2.90;;;;;;;24.20;65.76;98143.44;5151705;27;20033;-79
2023/07/03 10:18:31;;;;;;;14.65;3.80;;;;;;;23.86;66.32;98158.94;5135875;27;20037;-79
2023/07/03 10:21:20;;;;;;;8.95;3.10;;;;;;;24.08;67.41;98155.50;5135871;27;20149;-78
2023/07/03 10:24:05;;;;;;;8.23;3.22;;;;;;;23.29;69.99;98148.69;5149730;27;20045;-80
2023/07/03 10:26:57;;;;;;;12.40;3.22;;;;;;;23.03;70.83;98157.25;5134436;27;20069;-80
2023/07/03 10:29:46;;;;;;;10.85;4.03;;;;;;;23.04;72.84;98153.47;5136063;27;20064;-79
2023/07/03 10:32:33;;;;;;;14.43;3.42;;;;;;;22.76;74.19;98148.13;5134207;27;20122;-80
2023/07/03 10:35:30;;;;;;;12.18;3.00;;;;;;;23.17;74.43;98146.50;5150883;27;20118;-79
2023/07/03 10:38:34;;;;;;;12.20;3.00;;;;;;;23.14;75.26;98147.91;5152932;27;20098;-79
2023/07/03 10:41:57;;;;;;;12.65;3.17;;;;;;;22.65;76.63;98151.00;5140196;27;20122;-79
2023/07/03 10:44:42;;;;;;;8.87;3.00;;;;;;;22.25;76.63;98148.72;5090582;28;20042;-79
2023/07/03 10:47:36;;;;;;;16.27;3.70;;;;;;;21.78;78.16;98151.34;5153721;27;20083;-79
2023/07/03 10:50:30;;;;;;;9.95;2.90;;;;;;;21.25;79.76;98146.97;5154199;27;20050;-80
2023/07/03 10:53:17;;;;;;;11.48;3.35;;;;;;;21.16;80.38;98149.50;5154115;27;20046;-79
2023/07/03 10:56:43;;;;;;;7.85;3.00;;;;;;;21.28;83.52;98134.94;5154158;27;20418;-79
2023/07/03 10:59:32;;;;;;;11.10;3.80;;;;;;;21.10;84.47;98129.31;5145810;27;20044;-80
2023/07/03 11:02:31;;;;;;;9.63;2.92;;;;;;;21.20;85.34;98136.38;5137246;27;20047;-80
2023/07/03 11:05:34;;;;;;;12.43;3.22;;;;;;;21.42;84.25;98127.81;5151981;27;20579;-79
2023/07/03 11:09:00;;;;;;;11.13;3.88;;;;;;;21.51;85.56;98128.75;5151433;27;20445;-80
2023/07/03 11:11:50;;;;;;;11.70;3.33;;;;;;;21.95;86.78;98117.97;5139376;27;20604;-79
2023/07/03 11:15:02;;;;;;;11.75;3.10;;;;;;;21.95;84.13;98115.28;5154738;27;20049;-79
2023/07/03 11:17:55;;;;;;;7.60;2.60;;;;;;;21.69;82.30;98110.34;5153829;27;20034;-80
2023/07/03 11:20:45;;;;;;;6.60;3.00;;;;;;;21.90;83.95;98104.69;5152475;27;20041;-81
2023/07/03 11:23:40;;;;;;;9.40;2.63;;;;;;;21.81;83.97;98105.38;5140204;27;20261;-83
2023/07/03 11:26:41;;;;;;;7.38;2.25;;;;;;;21.77;86.09;98107.03;5153150;27;20083;-83
2023/07/03 11:29:27;;;;;;;5.85;2.20;;;;;;;21.35;84.22;98108.69;5138230;27;20045;-80
2023/07/03 11:32:13;;;;;;;5.55;1.98;;;;;;;21.04;86.51;98104.56;5154287;27;20070;-81
2023/07/03 11:35:03;;;;;;;5.57;2.40;;;;;;;20.56;90.18;98097.34;5154592;27;20502;-81
2023/07/03 11:37:49;;;;;;;3.22;1.75;;;;;;;20.43;90.89;98090.03;5153261;27;20082;-79
2023/07/03 11:40:39;;;;;;;4.22;1.40;;;;;;;20.46;90.99;98086.81;5152743;27;20098;-79
2023/07/03 11:43:38;;;;;;;1.15;0.80;;;;;;;19.92;87.61;98081.47;5139989;27;20090;-79
2023/07/03 11:46:24;;;;;;;2.80;1.25;;;;;;;19.60;88.87;98075.56;5153444;27;20104;-78
2023/07/03 11:49:12;;;;;;;1.42;0.70;;;;;;;19.29;88.39;98065.13;5149654;27;20045;-78
2023/07/03 11:52:00;;;;;;;0.88;0.75;;;;;;;19.91;87.08;98067.34;5152904;27;20045;-77
2023/07/03 11:54:45;;;;;;;1.20;0.80;;;;;;;20.34;91.98;98065.88;5151497;27;20065;-78
2023/07/03 11:57:38;;;;;;;2.47;1.15;;;;;;;20.85;85.91;98061.88;5154391;27;20036;-77
2023/07/03 12:00:27;;;;;;;1.90;0.98;;;;;;;21.33;86.88;98063.63;5135229;27;20469;-78
2023/07/03 12:03:11;;;;;;;1.08;0.80;;;;;;;22.34;84.39;98057.94;5152356;27;20042;-77
2023/07/03 12:05:57;;;;;;;2.50;1.30;;;;;;;22.48;83.75;98054.53;5138386;27;20129;-78
2023/07/03 12:08:42;;;;;;;4.57;1.42;;;;;;;22.33;83.91;98069.72;5149509;27;20113;-77
2023/07/03 12:11:26;;;;;;;2.20;1.60;;;;;;;22.03;83.31;98063.06;5152256;27;20038;-77
2023/07/03 12:14:30;;;;;;;5.20;1.40;;;;;;;22.37;83.10;98056.56;5154185;27;20090;-77
2023/07/03 12:17:18;;;;;;;;;;;;;;;22.64;83.16;98068.38;5137610;27;20060;-78
2023/07/03 12:20:17;;;;;;;5.60;1.83;;;;;;;22.73;83.32;98074.63;5135293;27;19918;-78
2023/07/03 12:23:01;;;;;;;3.10;1.63;;;;;;;22.39;83.63;98076.56;5152558;27;20118;-78
2023/07/03 12:25:45;;;;;;;4.38;1.23;;;;;;;22.23;83.58;98102.00;5152935;27;20470;-78
2023/07/03 12:28:29;;;;;;;2.97;1.15;;;;;;;21.48;82.55;98086.63;5153882;27;20173;-77
2023/07/03 12:31:22;;;;;;;2.05;1.02;;;;;;;21.88;83.41;98090.84;5135853;27;20103;-77
2023/07/03 12:34:06;;;;;;;2.37;1.00;;;;;;;21.17;83.81;98092.38;5137235;27;20145;-77
2023/07/03 12:36:50;;;;;;;1.42;1.00;;;;;;;21.28;87.69;98092.25;5136617;27;20253;-77
2023/07/03 12:39:35;;;;;;;1.30;0.77;;;;;;;21.22;83.64;98087.00;5153696;27;20041;-77
2023/07/03 12:42:23;;;;;;;0.95;0.80;;;;;;;21.34;86.32;98085.75;5150195;27;20045;-77
2023/07/03 12:45:26;;;;;;;1.50;1.00;;;;;;;21.68;83.84;98096.19;5136018;27;20562;-82
2023/07/03 12:48:22;;;;;;;0.70;0.70;;;;;;;20.98;82.23;98095.81;5152414;27;20062;-80
2023/07/03 12:51:06;;;;;;;1.30;0.70;;;;;;;22.15;79.13;98097.31;5150780;27;20503;-80
2023/07/03 12:53:50;;;;;;;3.22;0.63;;;;;;;21.74;81.04;98093.47;5135713;27;20037;-81
2023/07/03 12:56:35;;;;;;;0.88;0.68;;;;;;;21.80;80.31;98094.97;5135759;27;20103;-81
2023/07/03 12:59:21;;;;;;;2.75;0.75;;;;;;;21.17;81.19;98095.03;5151425;27;20073;-81
2023/07/03 13:02:06;;;;;;;3.90;1.00;;;;;;;21.87;79.54;98094.59;5135436;27;20160;-81
2023/07/03 13:05:02;;;;;;;1.60;0.60;;;;;;;21.62;79.51;98091.22;5151626;27;20046;-80